Grosse Ile, MI

5:00 PM EDT on March 25, 2017 (GMT -0400)
Grosse Ile Municipal

Weather History for KONZ - September, 2012

Change the Weather History Date:

Monday, September 3, 2012

  Actual Average (KDTW) Record (KDTW)
Temperature  
Mean Temperature 76 °F -  
Max Temperature 84 °F 78 °F 100 °F (1953)
Min Temperature 69 °F 57 °F 43 °F (1976)
Cooling Degree Days 12    
Growing Degree Days 26 (Base 50)    
Moisture  
Dew Point 71 °F    
Average Humidity 82    
Maximum Humidity 94    
Minimum Humidity 70    
Precipitation  
Precipitation 0.00 in - - ()
Sea Level Pressure  
Sea Level Pressure 29.93 in    
Wind  
Wind Speed 6 mph (East)    
Max Wind Speed 13 mph    
Max Gust Speed 17 mph    
Visibility 9 miles    
Events      
Averages and records for this station are not official NWS values.
T = Trace of Precipitation, MM = Missing Value Source: NWS Daily Summary

Daily Weather History Graph

Daily Weather History Graph

Search for Another Location

Airport or City:

Trip Planner

Search our weather history database for the weather conditions in past years. The results will help you decide how hot, cold, wet, or windy it might be!

Date:

Astronomy

Sep. 03, 2012 Rise Set
Actual Time 7:00 AM EDT 8:02 PM EDT
Civil Twilight 6:32 AM EDT 8:30 PM EDT
Nautical Twilight 5:57 AM EDT 9:04 PM EDT
Astronomical Twilight 5:22 AM EDT 9:40 PM EDT
Moon 9:15 PM EDT (9/3) 10:12 AM EDT (9/3)
Length of Visible Light 13h 58m
Length of Day
13h 01m
Waning Gibbous, 90% of the Moon is Illuminated
Sep 3
Waning Gibbous
Sep 8
Last Quarter
Sep 15
New
Sep 22
First Quarter
Sep 29
Full

Hourly Weather History & Observations

Time (EDT) Temp. Heat Index Dew Point Humidity Pressure Visibility Wind Dir Wind Speed Gust Speed Precip Events Conditions
12:14 AM 71.6 °F - 62.6 °F 73% 29.97 in 10.0 mi NNE 5.8 mph - N/A   Scattered Clouds
12:54 AM 71.6 °F - 62.6 °F 73% 29.96 in 10.0 mi NE 6.9 mph - N/A   Clear
1:14 AM 71.6 °F - 62.6 °F 73% 29.96 in 10.0 mi NE 3.5 mph - N/A   Clear
1:34 AM 71.6 °F - 64.4 °F 78% 29.96 in 10.0 mi NE 4.6 mph - N/A   Clear
1:54 AM 69.8 °F - 64.4 °F 83% 29.96 in 10.0 mi NNE 4.6 mph - N/A   Clear
2:14 AM 69.8 °F - 64.4 °F 83% 29.96 in 10.0 mi NNE 6.9 mph - N/A   Clear
2:34 AM 71.6 °F - 64.4 °F 78% 29.95 in 10.0 mi NNE 6.9 mph - N/A   Clear
2:54 AM 71.6 °F - 64.4 °F 78% 29.95 in 10.0 mi NE 6.9 mph - N/A   Clear
3:14 AM 71.6 °F - 64.4 °F 78% 29.95 in 10.0 mi NE 4.6 mph - N/A   Clear
3:34 AM 69.8 °F - 64.4 °F 83% 29.94 in 10.0 mi NE 6.9 mph - N/A   Clear
3:54 AM 71.6 °F - 64.4 °F 78% 29.94 in 10.0 mi NE 6.9 mph - N/A   Clear
4:14 AM 69.8 °F - 64.4 °F 83% 29.95 in 10.0 mi NE 5.8 mph - N/A   Clear
4:34 AM 69.8 °F - 64.4 °F 83% 29.94 in 10.0 mi NE 5.8 mph - N/A   Clear
4:54 AM 69.8 °F - 64.4 °F 83% 29.94 in 10.0 mi NE 5.8 mph - N/A   Clear
5:14 AM 69.8 °F - 64.4 °F 83% 29.94 in 10.0 mi NE 5.8 mph - N/A   Clear
5:34 AM 69.8 °F - 64.4 °F 83% 29.94 in 10.0 mi NE 6.9 mph - N/A   Clear
5:54 AM 69.8 °F - 64.4 °F 83% 29.94 in 10.0 mi NE 5.8 mph - N/A   Clear
6:14 AM 69.8 °F - 64.4 °F 83% 29.93 in 10.0 mi NE 5.8 mph - N/A   Clear
6:34 AM 69.8 °F - 64.4 °F 83% 29.93 in 10.0 mi NE 9.2 mph - N/A   Clear
6:54 AM 69.8 °F - 64.4 °F 83% 29.93 in 10.0 mi NE 6.9 mph - N/A   Clear
7:14 AM 69.8 °F - 64.4 °F 83% 29.93 in 10.0 mi NE 8.1 mph - N/A   Clear
7:34 AM 69.8 °F - 66.2 °F 88% 29.94 in 10.0 mi NE 8.1 mph - N/A   Clear
7:54 AM 71.6 °F - 66.2 °F 83% 29.94 in 10.0 mi NE 9.2 mph - N/A   Clear
8:14 AM 71.6 °F - 66.2 °F 83% 29.95 in 10.0 mi NE 8.1 mph - N/A   Clear
8:34 AM 73.4 °F - 68.0 °F 83% 29.95 in 10.0 mi NE 9.2 mph - N/A   Clear
8:54 AM 73.4 °F - 69.8 °F 88% 29.96 in 10.0 mi NE 9.2 mph - N/A   Clear
9:14 AM 75.2 °F - 69.8 °F 83% 29.95 in 10.0 mi NE 9.2 mph - N/A   Clear
9:34 AM 77.0 °F - 71.6 °F 83% 29.95 in 10.0 mi NNE 9.2 mph - N/A   Clear
9:54 AM 77.0 °F - 71.6 °F 83% 29.96 in 10.0 mi NE 8.1 mph - N/A   Clear
10:14 AM 78.8 °F - 71.6 °F 78% 29.96 in 10.0 mi NE 8.1 mph - N/A   Clear
10:34 AM 80.6 °F 85.4 °F 73.4 °F 79% 29.95 in 10.0 mi NE 6.9 mph - N/A   Clear
10:54 AM 80.6 °F 85.4 °F 73.4 °F 79% 29.94 in 10.0 mi NE 6.9 mph - N/A   Clear
11:14 AM 82.4 °F 88.2 °F 73.4 °F 74% 29.95 in 10.0 mi East 4.6 mph - N/A   Clear
11:34 AM 82.4 °F 88.2 °F 73.4 °F 74% 29.95 in 10.0 mi ENE 4.6 mph - N/A   Scattered Clouds
11:54 AM 82.4 °F 88.2 °F 73.4 °F 74% 29.94 in 10.0 mi South 8.1 mph - N/A   Scattered Clouds
12:14 PM 82.4 °F 89.5 °F 75.2 °F 79% 29.94 in 10.0 mi South 5.8 mph - N/A   Clear
12:34 PM 80.6 °F 86.2 °F 75.2 °F 84% 29.94 in 10.0 mi SSE 6.9 mph - N/A   Scattered Clouds
12:54 PM 80.6 °F 86.2 °F 75.2 °F 84% 29.94 in 10.0 mi South 6.9 mph - N/A   Scattered Clouds
1:14 PM 82.4 °F 89.5 °F 75.2 °F 79% 29.94 in 10.0 mi SSE 9.2 mph - N/A   Scattered Clouds
1:34 PM 82.4 °F 89.5 °F 75.2 °F 79% 29.94 in 10.0 mi SSE 6.9 mph - N/A   Clear
1:54 PM 82.4 °F 89.5 °F 75.2 °F 79% 29.94 in 10.0 mi SSE 6.9 mph - N/A   Clear
2:14 PM 82.4 °F 89.5 °F 75.2 °F 79% 29.93 in 10.0 mi South 9.2 mph - N/A   Clear
2:34 PM 80.6 °F 86.2 °F 75.2 °F 84% 29.93 in 10.0 mi SSE 10.4 mph - N/A   Clear
2:54 PM 82.4 °F 89.5 °F 75.2 °F 79% 29.93 in 10.0 mi SSE 9.2 mph - N/A   Clear
3:14 PM 82.4 °F 89.5 °F 75.2 °F 79% 29.92 in 10.0 mi SSE 4.6 mph - N/A   Clear
3:34 PM 82.4 °F 89.5 °F 75.2 °F 79% 29.92 in 10.0 mi SSE 5.8 mph - N/A   Clear
3:54 PM 82.4 °F 89.5 °F 75.2 °F 79% 29.91 in 10.0 mi SSE 8.1 mph - N/A   Clear
4:14 PM 82.4 °F 89.5 °F 75.2 °F 79% 29.90 in 10.0 mi SSE 9.2 mph - N/A   Clear
4:34 PM 82.4 °F 89.5 °F 75.2 °F 79% 29.90 in 10.0 mi SSE 9.2 mph - N/A   Clear
4:54 PM 82.4 °F 89.5 °F 75.2 °F 79% 29.89 in 10.0 mi South 5.8 mph - N/A   Clear
5:14 PM 82.4 °F 88.2 °F 73.4 °F 74% 29.89 in 10.0 mi SSE 5.8 mph - N/A   Clear
5:34 PM 82.4 °F 88.2 °F 73.4 °F 74% 29.88 in 10.0 mi Calm Calm - N/A   Clear
5:54 PM 84.2 °F 90.9 °F 73.4 °F 70% 29.88 in 10.0 mi Calm Calm - N/A   Clear
6:14 PM 82.4 °F 88.2 °F 73.4 °F 74% 29.87 in 10.0 mi Calm Calm - N/A   Clear
6:34 PM 84.2 °F 90.9 °F 73.4 °F 70% 29.87 in 10.0 mi Calm Calm - N/A   Clear
6:54 PM 82.4 °F 89.5 °F 75.2 °F 79% 29.88 in 10.0 mi SSW 4.6 mph - N/A   Clear
7:14 PM 80.6 °F 86.2 °F 75.2 °F 84% 29.88 in 7.0 mi South 12.7 mph 17.3 mph N/A   Clear
7:34 PM 78.8 °F - 75.2 °F 89% 29.89 in 5.0 mi SSE 8.1 mph - N/A   Clear
7:54 PM 78.8 °F - 73.4 °F 83% 29.89 in 5.0 mi SSE 6.9 mph - N/A   Clear
8:14 PM 78.8 °F - 73.4 °F 83% 29.90 in 7.0 mi ESE 4.6 mph - N/A   Clear
8:34 PM 77.0 °F - 73.4 °F 89% 29.90 in 7.0 mi ESE 3.5 mph - N/A   Clear
8:54 PM 77.0 °F - 73.4 °F 89% 29.91 in 7.0 mi East 3.5 mph - N/A   Clear
9:14 PM 77.0 °F - 73.4 °F 89% 29.91 in 7.0 mi East 3.5 mph - N/A   Clear
9:34 PM 75.2 °F - 73.4 °F 94% 29.91 in 5.0 mi Calm Calm - N/A   Clear
9:54 PM 75.2 °F - 73.4 °F 94% 29.91 in 5.0 mi Calm Calm - N/A   Clear
10:14 PM 75.2 °F - 73.4 °F 94% 29.91 in 5.0 mi Calm Calm - N/A   Clear
10:34 PM 75.2 °F - 73.4 °F 94% 29.91 in 5.0 mi Calm Calm - N/A   Mostly Cloudy
10:54 PM 75.2 °F - 73.4 °F 94% 29.91 in 5.0 mi Calm Calm - N/A   Overcast
11:14 PM 75.2 °F - 73.4 °F 94% 29.91 in 5.0 mi Calm Calm - N/A   Mostly Cloudy
11:34 PM 75.2 °F - 73.4 °F 94% 29.91 in 5.0 mi Calm Calm - N/A   Scattered Clouds
11:54 PM 77.0 °F - 73.4 °F 89% 29.91 in 7.0 mi Calm Calm - N/A   Clear